Portada
METAR-TAF:

METAR-TAF

Aeropuertos :

Aeropuerto Internacional Houari Boumedienne

Argel, Argelia

latitud: 36-43N, longitud: 003-15E, altitud: 25 m

Observación

El informe se hizo hace 35 minutos, a las 11:30 UTC
Viento 8 kt del oeste
Temperatura 22°C
Humedad 43%
Presión 1017 hPa
Visibilidad 10 km o más
Escasas nubes a una altura de 2600 ft

METAR: DAAG 211130Z 27008KT 9999 FEW026 22/09 Q1017

Hora: 13:05 (12:05 UTC)

Pronóstico

El informe se hizo hace 1 hora y 5 minutos, a las 11:00 UTC
Pronóstico válido del 21 a las 12 UTC al 22 a las 12 UTC
Viento 10 kt del oeste
Visibilidad 10 km o más
Escasas nubes a una altura de 2600 ft
Evolucionando progresivamente
del 21 a las 17 UTC al 21 a las 19 UTC
Viento 2 kt con dirección variable

TAF: DAAG 211100Z 2112/2212 28010KT 9999 FEW026 BECMG 2117/2119 VRB02KT

Observaciones y pronósticos meteorológicos de más de 4000 aeropuertos (mensajes METAR y TAF).

Los puntos amarillos y rojos representan las estaciones disponibles.

Ponga el ratón en el punto deseado para ver el nombre de la estación.

Haga clic para ver las observaciones y los pronósticos meteorológicos.

Para cambiar el mapa : haga clic en los botones verdes con una cruz de color negro para hacer un zoom, en el botón verde con un guión para alejar o en las flechas verdes para mapas adyacentes.


METAR-TAF: